Terminal Aerodrome Forecast
Issued by NWS Wilmington, OH

Current Version | Previous Version | Text Only | Print | Product List | Glossary Off
Versions: 1 2 3 4 5 6 7 8 9 10 11 12 13 14 15 16 17 18 19 20 21 22 23

000
FTUS41 KILN 212100 AAA
TAFILN
TAF AMD
KILN 212104Z 2121/2218 34009KT P6SM SCT030 OVC045
     FM220500 35007KT P6SM OVC025
     FM221500 35008KT P6SM SCT035=

USA.gov is the U.S. government's official web portal to all federal, state and local government web resources and services.